createdAt,value
2017-09-08T00:00:17.019Z,4.70
2017-09-08T00:01:16.997Z,4.80
2017-09-08T00:02:16.974Z,4.60
2017-09-08T00:03:16.953Z,4.60
2017-09-08T00:04:16.930Z,4.80
2017-09-08T00:05:16.909Z,5.20
2017-09-08T00:06:16.887Z,5.00
2017-09-08T00:07:16.863Z,4.80
2017-09-08T00:08:16.841Z,4.60
2017-09-08T00:09:16.820Z,5.30
2017-09-08T00:10:16.798Z,4.60
2017-09-08T00:11:16.776Z,4.90
2017-09-08T00:12:16.754Z,5.10
2017-09-08T00:13:16.731Z,4.40
2017-09-08T00:14:16.708Z,4.70
2017-09-08T00:15:16.689Z,4.70
2017-09-08T00:16:16.666Z,4.70
2017-09-08T00:17:16.643Z,4.30
2017-09-08T00:18:16.620Z,4.20
2017-09-08T00:19:16.599Z,4.00
2017-09-08T00:20:16.590Z,4.30
2017-09-08T00:21:16.557Z,4.60
2017-09-08T00:22:16.533Z,4.50
2017-09-08T00:23:16.511Z,4.40
2017-09-08T00:24:16.489Z,4.10
2017-09-08T00:25:16.467Z,4.10
2017-09-08T00:26:16.443Z,4.40
2017-09-08T00:27:16.424Z,4.20
2017-09-08T00:28:16.401Z,4.20
2017-09-08T00:29:16.378Z,4.10
2017-09-08T00:30:16.356Z,4.00
2017-09-08T00:31:16.333Z,4.40
2017-09-08T00:32:16.311Z,4.10
2017-09-08T00:33:16.291Z,4.30
2017-09-08T00:34:16.267Z,4.10
2017-09-08T00:35:16.246Z,4.10
2017-09-08T00:36:16.226Z,4.30
2017-09-08T00:37:16.201Z,4.20
2017-09-08T00:38:16.179Z,4.00
2017-09-08T00:39:16.157Z,3.80
2017-09-08T00:40:16.142Z,4.40
2017-09-08T00:41:16.112Z,4.10
2017-09-08T00:42:16.090Z,3.70
2017-09-08T00:43:16.069Z,4.20
2017-09-08T00:44:16.046Z,4.30
2017-09-08T00:45:16.025Z,4.20
2017-09-08T00:46:16.002Z,4.10
2017-09-08T00:47:15.979Z,3.90
2017-09-08T00:48:15.965Z,3.90
2017-09-08T00:49:15.936Z,4.20
2017-09-08T00:50:15.919Z,4.10
2017-09-08T00:51:15.892Z,3.90
2017-09-08T00:52:15.870Z,4.30
2017-09-08T00:53:15.849Z,4.10
2017-09-08T00:54:15.826Z,4.50
2017-09-08T00:55:15.801Z,4.20
2017-09-08T00:56:15.781Z,3.90
2017-09-08T00:57:15.759Z,4.50
2017-09-08T00:58:15.735Z,4.50
2017-09-08T00:59:15.713Z,3.90
2017-09-08T01:00:15.693Z,4.40
2017-09-08T01:01:15.670Z,4.00
2017-09-08T01:02:15.648Z,4.20
2017-09-08T01:03:15.625Z,4.50
2017-09-08T01:04:15.604Z,3.90
2017-09-08T01:05:15.581Z,5.00
2017-09-08T01:06:15.558Z,3.80
2017-09-08T01:07:15.537Z,4.40
2017-09-08T01:08:15.516Z,4.00
2017-09-08T01:09:15.494Z,4.30
2017-09-08T01:10:15.470Z,3.80
2017-09-08T01:11:15.448Z,4.20
2017-09-08T01:12:15.427Z,4.30
2017-09-08T01:13:15.405Z,3.90
2017-09-08T01:14:15.383Z,3.80
2017-09-08T01:15:15.359Z,3.70
2017-09-08T01:16:15.340Z,3.80
2017-09-08T01:17:15.316Z,4.20
2017-09-08T01:18:15.294Z,3.90
2017-09-08T01:19:15.272Z,3.90
2017-09-08T01:20:15.249Z,4.30
2017-09-08T01:21:15.228Z,4.20
2017-09-08T01:22:15.207Z,4.20
2017-09-08T01:23:15.183Z,3.90
2017-09-08T01:24:15.162Z,4.10
2017-09-08T01:25:15.139Z,4.20
2017-09-08T01:26:15.117Z,4.00
2017-09-08T01:27:15.094Z,4.00
2017-09-08T01:28:15.072Z,4.20
2017-09-08T01:29:15.051Z,4.20
2017-09-08T01:30:15.028Z,4.00
2017-09-08T01:31:15.005Z,4.40
2017-09-08T01:32:14.984Z,4.20
2017-09-08T01:33:14.962Z,3.80
2017-09-08T01:34:14.943Z,3.70
2017-09-08T01:35:14.919Z,4.10
2017-09-08T01:36:14.897Z,4.30
2017-09-08T01:37:14.875Z,4.10
2017-09-08T01:38:14.852Z,3.40
2017-09-08T01:39:14.828Z,3.90
2017-09-08T01:40:14.808Z,3.90
2017-09-08T01:41:14.785Z,3.80
2017-09-08T01:42:14.761Z,4.30
2017-09-08T01:43:14.742Z,3.90
2017-09-08T01:44:14.719Z,3.80
2017-09-08T01:45:14.695Z,4.50
2017-09-08T01:46:14.675Z,4.10
2017-09-08T01:47:14.652Z,4.10
2017-09-08T01:48:14.631Z,3.70
2017-09-08T01:49:14.608Z,4.60
2017-09-08T01:50:14.622Z,4.20
2017-09-08T01:51:14.563Z,3.90
2017-09-08T01:52:14.540Z,4.10
2017-09-08T01:53:14.520Z,4.10
2017-09-08T01:54:14.496Z,4.10
2017-09-08T01:55:14.474Z,4.20
2017-09-08T01:56:14.482Z,3.90
2017-09-08T01:57:14.430Z,3.70
2017-09-08T01:58:14.408Z,4.00
2017-09-08T01:59:14.385Z,3.60
2017-09-08T02:00:14.363Z,4.20
2017-09-08T02:01:14.342Z,4.00
2017-09-08T02:02:14.318Z,4.10
2017-09-08T02:03:14.301Z,4.80
2017-09-08T02:04:14.276Z,4.10
2017-09-08T02:05:14.253Z,3.90
2017-09-08T02:06:14.230Z,3.60
2017-09-08T02:07:14.209Z,4.10
2017-09-08T02:08:14.186Z,4.70
2017-09-08T02:09:14.165Z,3.90
2017-09-08T02:10:14.142Z,4.30
2017-09-08T02:11:14.120Z,4.30
2017-09-08T02:12:14.098Z,4.00
2017-09-08T02:13:14.076Z,3.80
2017-09-08T02:14:14.053Z,4.00
2017-09-08T02:15:14.030Z,4.50
2017-09-08T02:16:14.009Z,3.60
2017-09-08T02:17:13.986Z,3.90
2017-09-08T02:18:13.965Z,4.40
2017-09-08T02:19:13.941Z,4.10
2017-09-08T02:20:13.920Z,3.90
2017-09-08T02:21:13.899Z,3.80
2017-09-08T02:22:13.878Z,4.30
2017-09-08T02:23:13.853Z,4.00
2017-09-08T02:24:13.831Z,4.00
2017-09-08T02:25:13.809Z,4.40
2017-09-08T02:26:13.787Z,4.10
2017-09-08T02:27:13.764Z,4.20
2017-09-08T02:28:13.742Z,4.10
2017-09-08T02:29:13.722Z,3.60
2017-09-08T02:30:13.697Z,3.70
2017-09-08T02:31:13.678Z,4.00
2017-09-08T02:32:13.657Z,3.80
2017-09-08T02:33:13.632Z,4.40
2017-09-08T02:34:13.610Z,3.30
2017-09-08T02:35:13.588Z,4.30
2017-09-08T02:36:13.565Z,4.00
2017-09-08T02:37:13.544Z,4.20
2017-09-08T02:38:13.520Z,3.90
2017-09-08T02:39:13.501Z,4.10
2017-09-08T02:40:13.477Z,4.30
2017-09-08T02:41:13.453Z,4.20
2017-09-08T02:42:13.430Z,4.00
2017-09-08T02:43:13.409Z,3.90
2017-09-08T02:44:13.388Z,4.30
2017-09-08T02:45:13.366Z,4.10
2017-09-08T02:46:13.343Z,4.50
2017-09-08T02:47:13.320Z,3.90
2017-09-08T02:48:13.298Z,4.60
2017-09-08T02:49:13.276Z,4.20
2017-09-08T02:50:13.254Z,3.90
2017-09-08T02:51:13.231Z,4.10
2017-09-08T02:52:13.210Z,4.00
2017-09-08T02:53:13.188Z,4.30
2017-09-08T02:54:13.167Z,4.00
2017-09-08T02:55:13.143Z,3.90
2017-09-08T02:56:13.121Z,4.10
2017-09-08T02:57:13.099Z,4.30
2017-09-08T02:58:13.103Z,3.70
2017-09-08T02:59:13.054Z,4.00
2017-09-08T03:00:13.033Z,4.00
2017-09-08T03:01:13.010Z,4.00
2017-09-08T03:02:12.987Z,4.00
2017-09-08T03:03:12.965Z,4.20
2017-09-08T03:04:12.943Z,4.60
2017-09-08T03:05:12.921Z,4.20
2017-09-08T03:06:12.898Z,4.30
2017-09-08T03:07:12.877Z,4.40
2017-09-08T03:08:12.855Z,4.30
2017-09-08T03:09:12.832Z,4.10
2017-09-08T03:10:12.810Z,4.20
2017-09-08T03:11:12.789Z,4.30
2017-09-08T03:12:12.766Z,4.10
2017-09-08T03:13:12.744Z,3.80
2017-09-08T03:14:12.721Z,4.10
2017-09-08T03:15:12.698Z,4.00
2017-09-08T03:16:12.678Z,4.60
2017-09-08T03:17:12.655Z,4.00
2017-09-08T03:18:12.632Z,4.10
2017-09-08T03:19:12.611Z,4.20
2017-09-08T03:20:12.588Z,4.40
2017-09-08T03:21:12.564Z,4.50
2017-09-08T03:22:12.545Z,4.30
2017-09-08T03:23:12.527Z,4.20
2017-09-08T03:24:12.499Z,4.00
2017-09-08T03:25:12.477Z,4.10
2017-09-08T03:26:12.454Z,4.60
2017-09-08T03:27:12.431Z,4.20
2017-09-08T03:28:12.412Z,4.10
2017-09-08T03:29:12.390Z,4.50
2017-09-08T03:30:12.365Z,4.30
2017-09-08T03:31:12.341Z,4.20
2017-09-08T03:32:12.320Z,4.30
2017-09-08T03:33:12.297Z,4.50
2017-09-08T03:34:12.275Z,4.00
2017-09-08T03:35:12.253Z,4.30
2017-09-08T03:36:12.268Z,4.30
2017-09-08T03:37:12.210Z,4.00
2017-09-08T03:38:12.187Z,4.30
2017-09-08T03:39:12.163Z,4.60
2017-09-08T03:40:12.143Z,4.20
2017-09-08T03:41:12.121Z,4.00
2017-09-08T03:42:12.098Z,4.20
2017-09-08T03:43:12.076Z,4.10
2017-09-08T03:44:12.053Z,4.30
2017-09-08T03:45:12.031Z,4.00
2017-09-08T03:46:12.010Z,4.30
2017-09-08T03:47:11.985Z,4.20
2017-09-08T03:48:11.965Z,4.20
2017-09-08T03:49:11.942Z,4.10
2017-09-08T03:50:11.919Z,4.80
2017-09-08T03:51:11.896Z,4.80
2017-09-08T03:52:11.875Z,4.00
2017-09-08T03:53:11.853Z,4.30
2017-09-08T03:54:11.830Z,4.20
2017-09-08T03:55:11.808Z,4.20
2017-09-08T03:56:11.787Z,4.90
2017-09-08T03:57:11.765Z,4.20
2017-09-08T03:58:11.768Z,4.20
2017-09-08T03:59:11.721Z,4.40
2017-09-08T04:00:11.697Z,4.40
2017-09-08T04:01:11.675Z,4.60
2017-09-08T04:02:11.652Z,4.40
2017-09-08T04:03:11.630Z,4.10
2017-09-08T04:04:11.606Z,4.60
2017-09-08T04:05:11.586Z,4.80
2017-09-08T04:06:11.563Z,4.20
2017-09-08T04:07:11.542Z,4.60
2017-09-08T04:08:11.520Z,4.40
2017-09-08T04:09:11.498Z,4.40
2017-09-08T04:10:11.475Z,4.50
2017-09-08T04:11:11.452Z,4.10
2017-09-08T04:12:11.429Z,4.40
2017-09-08T04:13:11.407Z,4.30
2017-09-08T04:14:11.385Z,4.60
2017-09-08T04:15:11.363Z,4.00
2017-09-08T04:16:11.342Z,4.40
2017-09-08T04:17:11.319Z,4.70
2017-09-08T04:18:11.296Z,4.70
2017-09-08T04:19:11.273Z,4.60
2017-09-08T04:20:11.253Z,4.30
2017-09-08T04:21:11.232Z,5.10
2017-09-08T04:22:11.206Z,4.40
2017-09-08T04:23:11.185Z,4.60
2017-09-08T04:24:11.162Z,4.40
2017-09-08T04:25:11.141Z,4.50
2017-09-08T04:26:11.119Z,4.20
2017-09-08T04:27:11.097Z,4.70
2017-09-08T04:28:11.077Z,4.30
2017-09-08T04:29:11.057Z,5.00
2017-09-08T04:30:11.028Z,4.30
2017-09-08T04:31:11.007Z,4.10
2017-09-08T04:32:10.985Z,4.70
2017-09-08T04:33:10.964Z,4.30
2017-09-08T04:34:10.939Z,4.40
2017-09-08T04:35:10.917Z,4.80
2017-09-08T04:36:10.895Z,4.40
2017-09-08T04:37:10.874Z,4.50
2017-09-08T04:38:10.850Z,4.60
2017-09-08T04:39:10.828Z,4.60
2017-09-08T04:40:10.807Z,4.30
2017-09-08T04:41:10.784Z,4.60
2017-09-08T04:42:10.763Z,4.40
2017-09-08T04:43:10.739Z,4.60
2017-09-08T04:44:10.717Z,4.20
2017-09-08T04:45:10.728Z,4.40
2017-09-08T04:46:10.671Z,4.90
2017-09-08T04:47:10.651Z,4.70
2017-09-08T04:48:10.628Z,4.90
2017-09-08T04:49:10.608Z,4.50
2017-09-08T04:50:10.583Z,4.20
2017-09-08T04:51:10.561Z,4.10
2017-09-08T04:52:10.539Z,4.70
2017-09-08T04:53:10.517Z,4.20
2017-09-08T04:54:10.494Z,4.20
2017-09-08T04:55:10.471Z,4.40
2017-09-08T04:56:10.450Z,4.30
2017-09-08T04:57:10.429Z,4.50
2017-09-08T04:58:10.405Z,4.30
2017-09-08T04:59:10.382Z,4.20
2017-09-08T05:00:10.361Z,5.90
2017-09-08T05:01:10.339Z,11.40
2017-09-08T05:02:10.320Z,50.10
2017-09-08T05:03:10.295Z,123.20
2017-09-08T05:04:10.272Z,85.30
2017-09-08T05:05:10.251Z,80.90
2017-09-08T05:06:10.227Z,98.20
2017-09-08T05:07:10.205Z,149.90
2017-09-08T05:08:10.183Z,144.00
2017-09-08T05:09:10.162Z,121.00
2017-09-08T05:10:10.140Z,172.80
2017-09-08T05:11:10.117Z,179.40
2017-09-08T05:12:10.096Z,150.90
2017-09-08T05:13:10.073Z,175.90
2017-09-08T05:14:10.049Z,119.00
2017-09-08T05:15:10.030Z,135.00
2017-09-08T05:16:10.008Z,134.40
2017-09-08T05:17:09.986Z,161.00
2017-09-08T05:18:09.963Z,144.90
2017-09-08T05:19:09.940Z,141.10
2017-09-08T05:20:09.919Z,108.40
2017-09-08T05:21:09.896Z,108.80
2017-09-08T05:22:09.873Z,130.40
2017-09-08T05:23:09.851Z,142.30
2017-09-08T05:24:09.830Z,132.70
2017-09-08T05:25:09.809Z,132.30
2017-09-08T05:26:09.790Z,139.30
2017-09-08T05:27:09.763Z,181.10
2017-09-08T05:28:09.741Z,187.60
2017-09-08T05:29:09.719Z,178.50
2017-09-08T05:30:09.696Z,192.30
2017-09-08T05:31:09.675Z,188.90
2017-09-08T05:32:09.654Z,194.30
2017-09-08T05:33:09.630Z,199.00
2017-09-08T05:34:09.607Z,199.00
2017-09-08T05:35:09.585Z,200.00
2017-09-08T05:36:09.564Z,198.70
2017-09-08T05:37:09.541Z,201.90
2017-09-08T05:38:09.519Z,204.60
2017-09-08T05:39:09.496Z,201.80
2017-09-08T05:40:09.476Z,197.70
2017-09-08T05:41:09.453Z,193.10
2017-09-08T05:42:09.430Z,204.50
2017-09-08T05:43:09.410Z,203.00
2017-09-08T05:44:09.387Z,200.60
2017-09-08T05:45:09.364Z,190.00
2017-09-08T05:46:09.341Z,201.10
2017-09-08T05:47:09.319Z,191.00
2017-09-08T05:48:09.297Z,188.80
2017-09-08T05:49:09.276Z,190.20
2017-09-08T05:50:09.254Z,193.30
2017-09-08T05:51:09.231Z,185.60
2017-09-08T05:52:09.210Z,194.40
2017-09-08T05:53:09.187Z,195.90
2017-09-08T05:54:09.164Z,185.00
2017-09-08T05:55:09.142Z,192.60
2017-09-08T05:56:09.121Z,191.90
2017-09-08T05:57:09.098Z,187.50
2017-09-08T05:58:09.076Z,184.90
2017-09-08T05:59:09.058Z,179.40
2017-09-08T06:00:09.038Z,174.80
2017-09-08T06:01:09.010Z,168.60
2017-09-08T06:02:08.988Z,175.70
2017-09-08T06:03:08.965Z,176.00
2017-09-08T06:04:08.943Z,179.70
2017-09-08T06:05:08.921Z,177.70
2017-09-08T06:06:08.899Z,181.20
2017-09-08T06:07:08.877Z,171.40
2017-09-08T06:08:08.855Z,177.40
2017-09-08T06:09:08.833Z,175.20
2017-09-08T06:10:08.810Z,176.80
2017-09-08T06:11:08.787Z,172.80
2017-09-08T06:12:08.767Z,180.50
2017-09-08T06:13:08.746Z,166.70
2017-09-08T06:14:08.722Z,175.60
2017-09-08T06:15:08.700Z,175.00
2017-09-08T06:16:08.678Z,177.10
2017-09-08T06:17:08.657Z,171.50
2017-09-08T06:18:08.633Z,174.00
2017-09-08T06:19:08.610Z,167.40
2017-09-08T06:20:08.597Z,174.50
2017-09-08T06:21:08.569Z,172.10
2017-09-08T06:22:08.545Z,173.00
2017-09-08T06:23:08.524Z,169.70
2017-09-08T06:24:08.501Z,168.40
2017-09-08T06:25:08.479Z,176.30
2017-09-08T06:26:08.457Z,167.10
2017-09-08T06:27:08.435Z,172.90
2017-09-08T06:28:08.412Z,169.20
2017-09-08T06:29:08.391Z,169.60
2017-09-08T06:30:08.368Z,171.40
2017-09-08T06:31:08.346Z,161.00
2017-09-08T06:32:08.327Z,167.30
2017-09-08T06:33:08.302Z,162.60
2017-09-08T06:34:08.279Z,165.30
2017-09-08T06:35:08.257Z,162.60
2017-09-08T06:36:08.235Z,160.40
2017-09-08T06:37:08.214Z,160.00
2017-09-08T06:38:08.190Z,161.80
2017-09-08T06:39:08.169Z,163.90
2017-09-08T06:40:08.146Z,161.90
2017-09-08T06:41:08.124Z,160.20
2017-09-08T06:42:08.102Z,157.90
2017-09-08T06:43:08.081Z,161.40
2017-09-08T06:44:08.058Z,157.10
2017-09-08T06:45:08.036Z,158.10
2017-09-08T06:46:08.012Z,156.40
2017-09-08T06:47:07.992Z,159.70
2017-09-08T06:48:07.970Z,157.10
2017-09-08T06:49:07.949Z,157.20
2017-09-08T06:50:07.951Z,157.60
2017-09-08T06:51:07.902Z,155.50
2017-09-08T06:52:07.881Z,159.00
2017-09-08T06:53:07.860Z,155.70
2017-09-08T06:54:07.836Z,155.20
2017-09-08T06:55:07.814Z,151.20
2017-09-08T06:56:07.792Z,154.00
2017-09-08T06:57:07.770Z,154.20
2017-09-08T06:58:07.748Z,151.60
2017-09-08T06:59:07.726Z,152.60
2017-09-08T07:00:07.703Z,149.50
2017-09-08T07:01:07.681Z,151.10
2017-09-08T07:02:07.658Z,148.70
2017-09-08T07:03:07.639Z,150.50
2017-09-08T07:04:07.615Z,149.20
2017-09-08T07:05:07.592Z,149.40
2017-09-08T07:06:07.568Z,147.20
2017-09-08T07:07:07.549Z,148.80
2017-09-08T07:08:07.532Z,150.60
2017-09-08T07:09:07.505Z,144.60
2017-09-08T07:10:07.481Z,143.70
2017-09-08T07:11:07.461Z,148.00
2017-09-08T07:12:07.437Z,146.20
2017-09-08T07:13:07.417Z,149.00
2017-09-08T07:14:07.395Z,147.90
2017-09-08T07:15:07.371Z,145.10
2017-09-08T07:16:07.351Z,143.20
2017-09-08T07:17:07.327Z,144.00
2017-09-08T07:18:07.305Z,141.60
2017-09-08T07:19:07.284Z,143.40
2017-09-08T07:20:07.261Z,146.50
2017-09-08T07:21:07.241Z,140.40
2017-09-08T07:22:07.217Z,142.80
2017-09-08T07:23:07.194Z,142.30
2017-09-08T07:24:07.173Z,141.90
2017-09-08T07:25:07.154Z,137.90
2017-09-08T07:26:07.128Z,140.50
2017-09-08T07:27:07.106Z,138.50
2017-09-08T07:28:07.085Z,139.50
2017-09-08T07:29:07.063Z,141.80
2017-09-08T07:30:07.040Z,139.80
2017-09-08T07:31:07.018Z,135.80
2017-09-08T07:32:06.996Z,139.50
2017-09-08T07:33:06.975Z,138.10
2017-09-08T07:34:06.952Z,136.90
2017-09-08T07:35:06.931Z,132.80
2017-09-08T07:36:06.907Z,133.90
2017-09-08T07:37:06.885Z,135.30
2017-09-08T07:38:06.862Z,135.80
2017-09-08T07:39:06.841Z,134.80
2017-09-08T07:40:06.820Z,133.80
2017-09-08T07:41:06.799Z,133.80
2017-09-08T07:42:06.774Z,135.30
2017-09-08T07:43:06.754Z,133.50
2017-09-08T07:44:06.733Z,131.90
2017-09-08T07:45:06.713Z,134.80
2017-09-08T07:46:06.687Z,132.20
2017-09-08T07:47:06.665Z,132.40
2017-09-08T07:48:06.643Z,127.00
2017-09-08T07:49:06.621Z,131.70
2017-09-08T07:50:06.597Z,130.10
2017-09-08T07:51:06.576Z,130.70
2017-09-08T07:52:06.553Z,131.10
2017-09-08T07:53:06.534Z,132.70
2017-09-08T07:54:06.510Z,128.70
2017-09-08T07:55:06.488Z,130.50
2017-09-08T07:56:06.467Z,129.30
2017-09-08T07:57:06.446Z,127.00
2017-09-08T07:58:06.422Z,129.90
2017-09-08T07:59:06.399Z,127.20
2017-09-08T08:00:06.378Z,127.50
2017-09-08T08:01:06.364Z,129.50
2017-09-08T08:02:06.333Z,125.40
2017-09-08T08:03:06.310Z,128.60
2017-09-08T08:04:06.289Z,124.90
2017-09-08T08:05:06.268Z,127.40
2017-09-08T08:06:06.244Z,125.70
2017-09-08T08:07:06.222Z,124.00
2017-09-08T08:08:06.202Z,123.00
2017-09-08T08:09:06.178Z,121.90
2017-09-08T08:10:06.158Z,124.00
2017-09-08T08:11:06.134Z,123.40
2017-09-08T08:12:06.112Z,123.00
2017-09-08T08:13:06.090Z,119.00
2017-09-08T08:14:06.067Z,120.10
2017-09-08T08:15:06.046Z,124.00
2017-09-08T08:16:06.024Z,124.00
2017-09-08T08:17:06.003Z,118.90
2017-09-08T08:18:05.980Z,123.80
2017-09-08T08:19:05.957Z,121.20
2017-09-08T08:20:05.938Z,117.80
2017-09-08T08:21:05.914Z,122.90
2017-09-08T08:22:05.892Z,116.40
2017-09-08T08:23:05.869Z,119.30
2017-09-08T08:24:05.849Z,117.70
2017-09-08T08:25:05.826Z,115.40
2017-09-08T08:26:05.802Z,118.50
2017-09-08T08:27:05.780Z,112.10
2017-09-08T08:28:05.759Z,117.40
2017-09-08T08:29:05.738Z,120.00
2017-09-08T08:30:05.715Z,113.70
2017-09-08T08:31:05.693Z,115.00
2017-09-08T08:32:05.670Z,115.00
2017-09-08T08:33:05.648Z,114.80
2017-09-08T08:34:05.630Z,115.90
2017-09-08T08:35:05.604Z,115.00
2017-09-08T08:36:05.582Z,113.60
2017-09-08T08:37:05.560Z,111.50
2017-09-08T08:38:05.538Z,112.30
2017-09-08T08:39:05.517Z,111.70
2017-09-08T08:40:05.494Z,113.60
2017-09-08T08:41:05.472Z,113.20
2017-09-08T08:42:05.450Z,112.00
2017-09-08T08:43:05.431Z,111.00
2017-09-08T08:44:05.407Z,112.30
2017-09-08T08:45:05.386Z,108.20
2017-09-08T08:46:05.362Z,113.00
2017-09-08T08:47:05.339Z,109.80
2017-09-08T08:48:05.318Z,111.30
2017-09-08T08:49:05.298Z,111.00
2017-09-08T08:50:05.272Z,108.50
2017-09-08T08:51:05.251Z,110.50
2017-09-08T08:52:05.230Z,111.90
2017-09-08T08:53:05.208Z,109.60
2017-09-08T08:54:05.186Z,108.60
2017-09-08T08:55:05.162Z,106.10
2017-09-08T08:56:05.141Z,106.70
2017-09-08T08:57:05.118Z,107.60
2017-09-08T08:58:05.097Z,107.40
2017-09-08T08:59:05.076Z,108.80
2017-09-08T09:00:05.053Z,105.90
2017-09-08T09:01:05.030Z,107.20
2017-09-08T09:02:05.010Z,106.00
2017-09-08T09:03:04.988Z,107.30
2017-09-08T09:04:04.970Z,106.50
2017-09-08T09:05:04.944Z,105.00
2017-09-08T09:06:04.920Z,106.90
2017-09-08T09:07:04.899Z,104.20
2017-09-08T09:08:04.876Z,105.20
2017-09-08T09:09:04.855Z,102.80
2017-09-08T09:10:04.833Z,103.60
2017-09-08T09:11:04.810Z,105.00
2017-09-08T09:12:04.789Z,105.40
2017-09-08T09:13:04.767Z,101.80
2017-09-08T09:14:04.743Z,103.70
2017-09-08T09:15:04.723Z,101.50
2017-09-08T09:16:04.700Z,103.10
2017-09-08T09:17:04.677Z,99.70
2017-09-08T09:18:04.654Z,101.60
2017-09-08T09:19:04.634Z,103.20
2017-09-08T09:20:04.612Z,99.90
2017-09-08T09:21:04.589Z,103.30
2017-09-08T09:22:04.567Z,99.10
2017-09-08T09:23:04.566Z,99.90
2017-09-08T09:24:04.524Z,97.70
2017-09-08T09:25:04.501Z,100.60
2017-09-08T09:26:04.479Z,99.90
2017-09-08T09:27:04.456Z,100.30
2017-09-08T09:28:04.434Z,94.80
2017-09-08T09:29:04.419Z,97.50
2017-09-08T09:30:04.391Z,97.00
2017-09-08T09:31:04.368Z,94.70
2017-09-08T09:32:04.346Z,94.80
2017-09-08T09:33:04.325Z,100.00
2017-09-08T09:34:04.308Z,97.20
2017-09-08T09:35:04.284Z,95.90
2017-09-08T09:36:04.258Z,97.50
2017-09-08T09:37:04.236Z,94.10
2017-09-08T09:38:04.213Z,94.30
2017-09-08T09:39:04.192Z,96.90
2017-09-08T09:40:04.169Z,94.20
2017-09-08T09:41:04.148Z,95.80
2017-09-08T09:42:04.124Z,95.10
2017-09-08T09:43:04.305Z,94.60
2017-09-08T09:44:04.082Z,93.00
2017-09-08T09:45:04.058Z,95.90
2017-09-08T09:46:04.037Z,93.30
2017-09-08T09:47:04.015Z,93.60
2017-09-08T09:48:03.993Z,91.70
2017-09-08T09:49:03.971Z,94.40
2017-09-08T09:50:03.953Z,95.80
2017-09-08T09:51:03.928Z,90.60
2017-09-08T09:52:03.905Z,89.30
2017-09-08T09:53:03.884Z,92.30
2017-09-08T09:54:03.861Z,91.40
2017-09-08T09:55:03.839Z,92.30
2017-09-08T09:56:03.817Z,89.90
2017-09-08T09:57:03.796Z,91.30
2017-09-08T09:58:03.772Z,88.00
2017-09-08T09:59:03.750Z,90.20
2017-09-08T10:00:03.730Z,89.20
2017-09-08T10:01:03.707Z,91.00
2017-09-08T10:02:03.684Z,88.40
2017-09-08T10:03:03.661Z,91.00
2017-09-08T10:04:03.639Z,90.30
2017-09-08T10:05:03.619Z,87.40
2017-09-08T10:06:03.596Z,89.30
2017-09-08T10:07:03.573Z,89.50
2017-09-08T10:08:03.552Z,92.50
2017-09-08T10:09:03.531Z,88.20
2017-09-08T10:10:03.508Z,89.10
2017-09-08T10:11:03.485Z,85.20
2017-09-08T10:12:03.463Z,88.10
2017-09-08T10:13:03.443Z,85.00
2017-09-08T10:14:03.420Z,87.60
2017-09-08T10:15:03.399Z,86.60
2017-09-08T10:16:03.375Z,85.60
2017-09-08T10:17:03.354Z,84.00
2017-09-08T10:18:03.331Z,85.10
2017-09-08T10:19:03.310Z,82.50
2017-09-08T10:20:03.288Z,89.10
2017-09-08T10:21:03.266Z,84.30
2017-09-08T10:22:03.241Z,86.40
2017-09-08T10:23:03.221Z,83.40
2017-09-08T10:24:03.199Z,86.00
2017-09-08T10:25:03.176Z,84.90
2017-09-08T10:26:03.154Z,84.80
2017-09-08T10:27:03.133Z,82.70
2017-09-08T10:28:03.110Z,85.70
2017-09-08T10:29:03.088Z,81.40
2017-09-08T10:30:03.065Z,82.00
2017-09-08T10:31:03.043Z,84.90
2017-09-08T10:32:03.023Z,81.40
2017-09-08T10:33:03.000Z,85.10
2017-09-08T10:34:02.979Z,80.30
2017-09-08T10:35:02.958Z,80.90
2017-09-08T10:36:02.934Z,85.60
2017-09-08T10:37:02.912Z,80.20
2017-09-08T10:38:02.893Z,81.30
2017-09-08T10:39:02.867Z,79.80
2017-09-08T10:40:02.847Z,79.50
2017-09-08T10:41:02.827Z,83.10
2017-09-08T10:42:02.802Z,79.90
2017-09-08T10:43:02.779Z,79.70
2017-09-08T10:44:02.764Z,80.10
2017-09-08T10:45:02.737Z,76.90
2017-09-08T10:46:02.716Z,78.80
2017-09-08T10:47:02.691Z,79.50
2017-09-08T10:48:02.670Z,78.90
2017-09-08T10:49:02.651Z,79.10
2017-09-08T10:50:02.624Z,77.80
2017-09-08T10:51:02.603Z,78.30
2017-09-08T10:52:02.582Z,79.00
2017-09-08T10:53:02.566Z,79.00
2017-09-08T10:54:02.537Z,77.70
2017-09-08T10:55:02.515Z,75.20
2017-09-08T10:56:02.494Z,78.00
2017-09-08T10:57:02.471Z,78.10
2017-09-08T10:58:02.448Z,77.50
2017-09-08T10:59:02.426Z,75.70
2017-09-08T11:00:02.405Z,74.20
2017-09-08T11:01:02.388Z,74.60
2017-09-08T11:02:02.361Z,75.80
2017-09-08T11:03:02.339Z,78.30
2017-09-08T11:04:02.324Z,75.80
2017-09-08T11:05:02.296Z,74.50
2017-09-08T11:06:02.274Z,75.30
2017-09-08T11:07:02.250Z,77.80
2017-09-08T11:08:02.230Z,72.60
2017-09-08T11:09:02.206Z,76.40
2017-09-08T11:10:02.184Z,74.30
2017-09-08T11:11:02.162Z,73.80
2017-09-08T11:12:02.140Z,75.10
2017-09-08T11:13:02.118Z,74.40
2017-09-08T11:14:02.097Z,75.00
2017-09-08T11:15:02.075Z,73.60
2017-09-08T11:16:02.052Z,72.50
2017-09-08T11:17:02.030Z,74.40
2017-09-08T11:18:02.008Z,73.10
2017-09-08T11:19:01.985Z,70.40
2017-09-08T11:20:01.965Z,73.00
2017-09-08T11:21:01.942Z,70.70
2017-09-08T11:22:01.919Z,70.00
2017-09-08T11:23:01.898Z,73.80
2017-09-08T11:24:01.875Z,71.10
2017-09-08T11:25:01.857Z,73.10
2017-09-08T11:26:01.841Z,72.00
2017-09-08T11:27:01.809Z,72.10
2017-09-08T11:28:01.787Z,72.40
2017-09-08T11:29:01.766Z,70.50
2017-09-08T11:30:01.743Z,68.70
2017-09-08T11:31:01.725Z,72.30
2017-09-08T11:32:01.699Z,68.80
2017-09-08T11:33:01.681Z,69.70
2017-09-08T11:34:01.657Z,69.60
2017-09-08T11:35:01.642Z,67.50
2017-09-08T11:36:01.611Z,70.30
2017-09-08T11:37:01.589Z,67.20
2017-09-08T11:38:01.566Z,69.70
2017-09-08T11:39:01.545Z,69.30
2017-09-08T11:40:01.524Z,68.90
2017-09-08T11:41:01.501Z,68.90
2017-09-08T11:42:01.478Z,67.90
2017-09-08T11:43:01.459Z,67.60
2017-09-08T11:44:01.434Z,67.00
2017-09-08T11:45:01.412Z,69.90
2017-09-08T11:46:01.390Z,67.60
2017-09-08T11:47:01.368Z,67.90
2017-09-08T11:48:01.347Z,68.30
2017-09-08T11:49:01.326Z,66.80
2017-09-08T11:50:01.304Z,67.30
2017-09-08T11:51:01.280Z,68.60
2017-09-08T11:52:01.260Z,64.70
2017-09-08T11:53:01.236Z,66.10
2017-09-08T11:54:01.214Z,65.50
2017-09-08T11:55:01.192Z,67.10
2017-09-08T11:56:01.172Z,64.90
2017-09-08T11:57:01.149Z,67.20
2017-09-08T11:58:01.126Z,65.80
2017-09-08T11:59:01.103Z,64.70
2017-09-08T12:00:01.082Z,65.60
2017-09-08T12:01:01.061Z,65.00
2017-09-08T12:02:01.037Z,64.90
2017-09-08T12:03:01.017Z,64.50
2017-09-08T12:04:00.995Z,63.20
2017-09-08T12:05:00.972Z,60.80
2017-09-08T12:06:00.950Z,41.10
2017-09-08T12:07:00.928Z,139.90
2017-09-08T12:08:00.908Z,235.40
2017-09-08T12:09:00.884Z,146.10
2017-09-08T12:10:00.862Z,139.30
2017-09-08T12:11:00.841Z,129.10
2017-09-08T12:12:00.818Z,124.40
2017-09-08T12:13:00.797Z,117.60
2017-09-08T12:14:00.773Z,110.20
2017-09-08T12:15:00.752Z,101.50
2017-09-08T12:16:00.732Z,89.70
2017-09-08T12:17:00.708Z,85.10
2017-09-08T12:18:00.685Z,82.10
2017-09-08T12:19:00.664Z,82.60
2017-09-08T12:20:00.642Z,78.50
2017-09-08T12:21:00.619Z,75.60
2017-09-08T12:22:00.598Z,75.10
2017-09-08T12:23:00.576Z,66.80
2017-09-08T12:24:00.553Z,72.90
2017-09-08T12:25:00.533Z,69.60
2017-09-08T12:26:00.510Z,70.90
2017-09-08T12:27:00.488Z,69.10
2017-09-08T12:28:00.468Z,66.80
2017-09-08T12:29:00.445Z,70.90
2017-09-08T12:30:00.433Z,70.30
2017-09-08T12:31:00.406Z,68.00
2017-09-08T12:32:00.383Z,67.40
2017-09-08T12:33:00.356Z,70.10
2017-09-08T12:34:00.333Z,70.80
2017-09-08T12:35:00.313Z,68.50
2017-09-08T12:36:00.290Z,65.60
2017-09-08T12:37:00.269Z,70.50
2017-09-08T12:38:00.246Z,69.70
2017-09-08T12:39:00.224Z,67.80
2017-09-08T12:40:00.203Z,68.00
2017-09-08T12:41:00.182Z,66.90
2017-09-08T12:42:00.159Z,65.10
2017-09-08T12:43:00.139Z,66.30
2017-09-08T12:44:00.116Z,64.10
2017-09-08T12:45:00.095Z,67.30
2017-09-08T12:46:00.070Z,66.00
2017-09-08T12:47:00.049Z,67.90
2017-09-08T12:48:00.030Z,65.60
2017-09-08T12:49:00.006Z,66.90
2017-09-08T12:49:59.983Z,65.60
2017-09-08T12:50:59.962Z,66.80
2017-09-08T12:51:59.940Z,64.70
2017-09-08T12:52:59.919Z,65.70